sensor_id;sensor_type;location;lat;lon;timestamp;temperature;humidity
39095;DHT22;24840;47.508;19.376;2022-11-14T00:00:03;7.30;99.90
39095;DHT22;24840;47.508;19.376;2022-11-14T00:02:30;7.30;99.90
39095;DHT22;24840;47.508;19.376;2022-11-14T00:04:56;7.20;99.90
39095;DHT22;24840;47.508;19.376;2022-11-14T00:07:22;7.20;99.90
39095;DHT22;24840;47.508;19.376;2022-11-14T00:09:48;7.20;99.90
39095;DHT22;24840;47.508;19.376;2022-11-14T00:12:14;7.20;99.90
39095;DHT22;24840;47.508;19.376;2022-11-14T00:14:41;7.20;99.90
39095;DHT22;24840;47.508;19.376;2022-11-14T00:17:07;7.20;99.90
39095;DHT22;24840;47.508;19.376;2022-11-14T00:19:33;7.20;99.90
39095;DHT22;24840;47.508;19.376;2022-11-14T00:21:58;7.20;99.90
39095;DHT22;24840;47.508;19.376;2022-11-14T00:24:24;7.20;99.90
39095;DHT22;24840;47.508;19.376;2022-11-14T00:26:50;7.10;99.90
39095;DHT22;24840;47.508;19.376;2022-11-14T00:29:16;7.10;99.90
39095;DHT22;24840;47.508;19.376;2022-11-14T00:31:42;7.00;99.90
39095;DHT22;24840;47.508;19.376;2022-11-14T00:34:11;7.00;99.90
39095;DHT22;24840;47.508;19.376;2022-11-14T00:36:37;7.00;99.90
39095;DHT22;24840;47.508;19.376;2022-11-14T00:39:03;7.00;99.90
39095;DHT22;24840;47.508;19.376;2022-11-14T00:41:29;7.00;99.90
39095;DHT22;24840;47.508;19.376;2022-11-14T00:43:55;7.00;99.90
39095;DHT22;24840;47.508;19.376;2022-11-14T00:46:21;6.90;99.90
39095;DHT22;24840;47.508;19.376;2022-11-14T00:48:47;6.90;99.90
39095;DHT22;24840;47.508;19.376;2022-11-14T00:51:13;6.80;99.90
39095;DHT22;24840;47.508;19.376;2022-11-14T00:53:40;6.70;99.90
39095;DHT22;24840;47.508;19.376;2022-11-14T00:56:06;6.70;99.90
39095;DHT22;24840;47.508;19.376;2022-11-14T00:58:32;6.70;99.90
39095;DHT22;24840;47.508;19.376;2022-11-14T01:00:58;6.70;99.90
39095;DHT22;24840;47.508;19.376;2022-11-14T01:03:24;6.60;99.90
39095;DHT22;24840;47.508;19.376;2022-11-14T01:05:51;6.60;99.90
39095;DHT22;24840;47.508;19.376;2022-11-14T01:08:18;6.60;99.90
39095;DHT22;24840;47.508;19.376;2022-11-14T01:10:47;6.50;99.90
39095;DHT22;24840;47.508;19.376;2022-11-14T01:13:14;6.50;99.90
39095;DHT22;24840;47.508;19.376;2022-11-14T01:15:44;6.50;99.90
39095;DHT22;24840;47.508;19.376;2022-11-14T01:18:12;6.50;99.90
39095;DHT22;24840;47.508;19.376;2022-11-14T01:20:39;6.50;99.90
39095;DHT22;24840;47.508;19.376;2022-11-14T01:23:06;6.40;99.90
39095;DHT22;24840;47.508;19.376;2022-11-14T01:25:33;6.40;99.90
39095;DHT22;24840;47.508;19.376;2022-11-14T01:27:59;6.40;99.90
39095;DHT22;24840;47.508;19.376;2022-11-14T01:30:25;6.30;99.90
39095;DHT22;24840;47.508;19.376;2022-11-14T01:32:51;6.40;99.90
39095;DHT22;24840;47.508;19.376;2022-11-14T01:35:17;6.40;99.90
39095;DHT22;24840;47.508;19.376;2022-11-14T01:37:43;6.30;99.90
39095;DHT22;24840;47.508;19.376;2022-11-14T01:40:10;6.30;99.90
39095;DHT22;24840;47.508;19.376;2022-11-14T01:42:36;6.30;99.90
39095;DHT22;24840;47.508;19.376;2022-11-14T01:48:17;6.20;99.90
39095;DHT22;24840;47.508;19.376;2022-11-14T01:50:47;6.20;99.90
39095;DHT22;24840;47.508;19.376;2022-11-14T01:53:14;6.10;99.90
39095;DHT22;24840;47.508;19.376;2022-11-14T01:55:41;6.00;99.90
39095;DHT22;24840;47.508;19.376;2022-11-14T01:58:07;6.10;99.90
39095;DHT22;24840;47.508;19.376;2022-11-14T02:00:34;6.10;99.90
39095;DHT22;24840;47.508;19.376;2022-11-14T02:03:00;6.10;99.90
39095;DHT22;24840;47.508;19.376;2022-11-14T02:05:26;6.00;99.90
39095;DHT22;24840;47.508;19.376;2022-11-14T02:07:52;6.00;99.90
39095;DHT22;24840;47.508;19.376;2022-11-14T02:10:19;6.00;99.90
39095;DHT22;24840;47.508;19.376;2022-11-14T02:12:46;6.10;99.90
39095;DHT22;24840;47.508;19.376;2022-11-14T02:15:14;6.00;99.90
39095;DHT22;24840;47.508;19.376;2022-11-14T02:17:40;6.00;99.90
39095;DHT22;24840;47.508;19.376;2022-11-14T02:22:37;6.00;99.90
39095;DHT22;24840;47.508;19.376;2022-11-14T02:25:06;6.00;99.90
39095;DHT22;24840;47.508;19.376;2022-11-14T02:27:34;6.00;99.90
39095;DHT22;24840;47.508;19.376;2022-11-14T02:30:13;5.90;99.90
39095;DHT22;24840;47.508;19.376;2022-11-14T02:32:39;5.90;99.90
39095;DHT22;24840;47.508;19.376;2022-11-14T02:35:06;5.80;99.90
39095;DHT22;24840;47.508;19.376;2022-11-14T02:37:32;5.80;99.90
39095;DHT22;24840;47.508;19.376;2022-11-14T02:39:58;5.80;99.90
39095;DHT22;24840;47.508;19.376;2022-11-14T02:42:24;5.80;99.90
39095;DHT22;24840;47.508;19.376;2022-11-14T02:44:51;5.80;99.90
39095;DHT22;24840;47.508;19.376;2022-11-14T02:47:17;5.80;99.90
39095;DHT22;24840;47.508;19.376;2022-11-14T02:49:43;5.80;99.90
39095;DHT22;24840;47.508;19.376;2022-11-14T02:52:09;5.70;99.90
39095;DHT22;24840;47.508;19.376;2022-11-14T02:54:35;5.70;99.90
39095;DHT22;24840;47.508;19.376;2022-11-14T02:57:00;5.70;99.90
39095;DHT22;24840;47.508;19.376;2022-11-14T02:59:26;5.80;99.90
39095;DHT22;24840;47.508;19.376;2022-11-14T03:01:52;5.80;99.90
39095;DHT22;24840;47.508;19.376;2022-11-14T03:04:18;5.90;99.90
39095;DHT22;24840;47.508;19.376;2022-11-14T03:06:44;5.80;99.90
39095;DHT22;24840;47.508;19.376;2022-11-14T03:09:10;5.80;99.90
39095;DHT22;24840;47.508;19.376;2022-11-14T03:11:37;5.90;99.90
39095;DHT22;24840;47.508;19.376;2022-11-14T03:14:04;5.90;99.90
39095;DHT22;24840;47.508;19.376;2022-11-14T03:16:29;5.90;99.90
39095;DHT22;24840;47.508;19.376;2022-11-14T03:18:55;5.80;99.90
39095;DHT22;24840;47.508;19.376;2022-11-14T03:21:22;5.80;99.90
39095;DHT22;24840;47.508;19.376;2022-11-14T03:23:48;5.70;99.90
39095;DHT22;24840;47.508;19.376;2022-11-14T03:26:15;5.80;99.90
39095;DHT22;24840;47.508;19.376;2022-11-14T03:28:41;5.80;99.90
39095;DHT22;24840;47.508;19.376;2022-11-14T03:31:10;5.80;99.90
39095;DHT22;24840;47.508;19.376;2022-11-14T03:33:37;5.80;99.90
39095;DHT22;24840;47.508;19.376;2022-11-14T03:36:04;5.80;99.90
39095;DHT22;24840;47.508;19.376;2022-11-14T03:38:31;5.80;99.90
39095;DHT22;24840;47.508;19.376;2022-11-14T03:40:58;5.70;99.90
39095;DHT22;24840;47.508;19.376;2022-11-14T03:43:24;5.80;99.90
39095;DHT22;24840;47.508;19.376;2022-11-14T03:45:52;5.80;99.90
39095;DHT22;24840;47.508;19.376;2022-11-14T03:48:18;5.80;99.90
39095;DHT22;24840;47.508;19.376;2022-11-14T03:50:43;5.70;99.90
39095;DHT22;24840;47.508;19.376;2022-11-14T03:53:10;5.80;99.90
39095;DHT22;24840;47.508;19.376;2022-11-14T03:55:36;5.80;99.90
39095;DHT22;24840;47.508;19.376;2022-11-14T03:58:03;5.80;99.90
39095;DHT22;24840;47.508;19.376;2022-11-14T04:00:29;5.70;99.90
39095;DHT22;24840;47.508;19.376;2022-11-14T04:02:56;5.70;99.90
39095;DHT22;24840;47.508;19.376;2022-11-14T04:05:23;5.60;99.90
39095;DHT22;24840;47.508;19.376;2022-11-14T04:07:49;5.80;99.90
39095;DHT22;24840;47.508;19.376;2022-11-14T04:10:16;5.80;99.90
39095;DHT22;24840;47.508;19.376;2022-11-14T04:12:50;5.60;99.90
39095;DHT22;24840;47.508;19.376;2022-11-14T04:15:18;5.50;99.90
39095;DHT22;24840;47.508;19.376;2022-11-14T04:17:45;5.50;99.90
39095;DHT22;24840;47.508;19.376;2022-11-14T04:20:12;5.70;99.90
39095;DHT22;24840;47.508;19.376;2022-11-14T04:22:39;5.70;99.90
39095;DHT22;24840;47.508;19.376;2022-11-14T04:25:06;5.60;99.90
39095;DHT22;24840;47.508;19.376;2022-11-14T04:27:32;5.60;99.90
39095;DHT22;24840;47.508;19.376;2022-11-14T04:29:58;5.70;99.90
39095;DHT22;24840;47.508;19.376;2022-11-14T04:32:24;5.70;99.90
39095;DHT22;24840;47.508;19.376;2022-11-14T04:34:50;5.70;99.90
39095;DHT22;24840;47.508;19.376;2022-11-14T04:37:16;5.70;99.90
39095;DHT22;24840;47.508;19.376;2022-11-14T04:39:42;5.70;99.90
39095;DHT22;24840;47.508;19.376;2022-11-14T04:42:08;5.50;99.90
39095;DHT22;24840;47.508;19.376;2022-11-14T04:44:34;5.50;99.90
39095;DHT22;24840;47.508;19.376;2022-11-14T04:47:00;5.40;99.90
39095;DHT22;24840;47.508;19.376;2022-11-14T04:49:26;5.50;99.90
39095;DHT22;24840;47.508;19.376;2022-11-14T04:51:52;5.40;99.90
39095;DHT22;24840;47.508;19.376;2022-11-14T04:54:18;5.30;99.90
39095;DHT22;24840;47.508;19.376;2022-11-14T04:56:44;5.30;99.90
39095;DHT22;24840;47.508;19.376;2022-11-14T04:59:10;5.40;99.90
39095;DHT22;24840;47.508;19.376;2022-11-14T05:01:36;5.40;99.90
39095;DHT22;24840;47.508;19.376;2022-11-14T05:04:03;5.40;99.90
39095;DHT22;24840;47.508;19.376;2022-11-14T05:06:29;5.30;99.90
39095;DHT22;24840;47.508;19.376;2022-11-14T05:08:55;5.20;99.90
39095;DHT22;24840;47.508;19.376;2022-11-14T05:11:21;5.20;99.90
39095;DHT22;24840;47.508;19.376;2022-11-14T05:13:48;5.20;99.90
39095;DHT22;24840;47.508;19.376;2022-11-14T05:16:14;5.20;99.90
39095;DHT22;24840;47.508;19.376;2022-11-14T05:18:40;5.20;99.90
39095;DHT22;24840;47.508;19.376;2022-11-14T05:21:09;5.20;99.90
39095;DHT22;24840;47.508;19.376;2022-11-14T05:23:35;5.20;99.90
39095;DHT22;24840;47.508;19.376;2022-11-14T05:26:13;5.10;99.90
39095;DHT22;24840;47.508;19.376;2022-11-14T05:28:39;5.00;99.90
39095;DHT22;24840;47.508;19.376;2022-11-14T05:31:10;5.10;99.90
39095;DHT22;24840;47.508;19.376;2022-11-14T05:33:38;5.10;99.90
39095;DHT22;24840;47.508;19.376;2022-11-14T05:36:05;5.10;99.90
39095;DHT22;24840;47.508;19.376;2022-11-14T05:38:32;5.10;99.90
39095;DHT22;24840;47.508;19.376;2022-11-14T05:40:59;5.10;99.90
39095;DHT22;24840;47.508;19.376;2022-11-14T05:43:28;5.10;99.90
39095;DHT22;24840;47.508;19.376;2022-11-14T05:46:00;5.10;99.90
39095;DHT22;24840;47.508;19.376;2022-11-14T05:48:26;5.10;99.90
39095;DHT22;24840;47.508;19.376;2022-11-14T05:50:54;5.10;99.90
39095;DHT22;24840;47.508;19.376;2022-11-14T05:53:20;5.10;99.90
39095;DHT22;24840;47.508;19.376;2022-11-14T05:55:48;5.00;99.90
39095;DHT22;24840;47.508;19.376;2022-11-14T05:58:14;5.00;99.90
39095;DHT22;24840;47.508;19.376;2022-11-14T06:00:40;5.00;99.90
39095;DHT22;24840;47.508;19.376;2022-11-14T06:03:06;5.00;99.90
39095;DHT22;24840;47.508;19.376;2022-11-14T06:05:34;4.90;99.90
39095;DHT22;24840;47.508;19.376;2022-11-14T06:08:00;4.90;99.90
39095;DHT22;24840;47.508;19.376;2022-11-14T06:10:26;4.90;99.90
39095;DHT22;24840;47.508;19.376;2022-11-14T06:12:53;4.90;99.90
39095;DHT22;24840;47.508;19.376;2022-11-14T06:15:20;5.00;99.90
39095;DHT22;24840;47.508;19.376;2022-11-14T06:17:46;4.70;99.90
39095;DHT22;24840;47.508;19.376;2022-11-14T06:20:12;4.80;99.90
39095;DHT22;24840;47.508;19.376;2022-11-14T06:22:39;4.90;99.90
39095;DHT22;24840;47.508;19.376;2022-11-14T06:25:13;4.80;99.90
39095;DHT22;24840;47.508;19.376;2022-11-14T06:27:39;4.80;99.90
39095;DHT22;24840;47.508;19.376;2022-11-14T06:30:05;4.80;99.90
39095;DHT22;24840;47.508;19.376;2022-11-14T06:32:31;4.80;99.90
39095;DHT22;24840;47.508;19.376;2022-11-14T06:34:57;4.70;99.90
39095;DHT22;24840;47.508;19.376;2022-11-14T06:37:23;4.80;99.90
39095;DHT22;24840;47.508;19.376;2022-11-14T06:39:49;4.90;99.90
39095;DHT22;24840;47.508;19.376;2022-11-14T06:42:15;4.90;99.90
39095;DHT22;24840;47.508;19.376;2022-11-14T06:44:43;4.90;99.90
39095;DHT22;24840;47.508;19.376;2022-11-14T06:47:08;5.00;99.90
39095;DHT22;24840;47.508;19.376;2022-11-14T06:49:34;4.90;99.90
39095;DHT22;24840;47.508;19.376;2022-11-14T06:52:00;5.20;99.90
39095;DHT22;24840;47.508;19.376;2022-11-14T06:54:26;5.20;99.90
39095;DHT22;24840;47.508;19.376;2022-11-14T06:56:52;5.20;99.90
39095;DHT22;24840;47.508;19.376;2022-11-14T06:59:18;5.30;99.90
39095;DHT22;24840;47.508;19.376;2022-11-14T07:01:44;5.40;99.90
39095;DHT22;24840;47.508;19.376;2022-11-14T07:04:10;5.50;99.90
39095;DHT22;24840;47.508;19.376;2022-11-14T07:06:36;5.60;99.90
39095;DHT22;24840;47.508;19.376;2022-11-14T07:09:01;5.70;99.90
39095;DHT22;24840;47.508;19.376;2022-11-14T07:11:27;5.80;99.90
39095;DHT22;24840;47.508;19.376;2022-11-14T07:13:56;5.80;99.90
39095;DHT22;24840;47.508;19.376;2022-11-14T07:16:33;5.80;99.90
39095;DHT22;24840;47.508;19.376;2022-11-14T07:19:05;5.80;99.90
39095;DHT22;24840;47.508;19.376;2022-11-14T07:21:33;6.00;99.90
39095;DHT22;24840;47.508;19.376;2022-11-14T07:24:00;6.20;99.90
39095;DHT22;24840;47.508;19.376;2022-11-14T07:26:25;6.30;99.90
39095;DHT22;24840;47.508;19.376;2022-11-14T07:28:51;6.50;99.90
39095;DHT22;24840;47.508;19.376;2022-11-14T07:31:18;6.60;99.90
39095;DHT22;24840;47.508;19.376;2022-11-14T07:33:45;6.40;99.90
39095;DHT22;24840;47.508;19.376;2022-11-14T07:36:12;6.50;99.90
39095;DHT22;24840;47.508;19.376;2022-11-14T07:38:41;6.80;99.90
39095;DHT22;24840;47.508;19.376;2022-11-14T07:41:12;6.80;99.90
39095;DHT22;24840;47.508;19.376;2022-11-14T07:43:39;6.90;99.90
39095;DHT22;24840;47.508;19.376;2022-11-14T07:46:10;6.90;99.90
39095;DHT22;24840;47.508;19.376;2022-11-14T07:48:37;6.90;99.90
39095;DHT22;24840;47.508;19.376;2022-11-14T07:51:06;6.90;99.90
39095;DHT22;24840;47.508;19.376;2022-11-14T07:53:35;7.10;99.90
39095;DHT22;24840;47.508;19.376;2022-11-14T07:56:04;7.10;99.90
39095;DHT22;24840;47.508;19.376;2022-11-14T07:58:33;7.30;99.90
39095;DHT22;24840;47.508;19.376;2022-11-14T08:01:01;7.40;99.90
39095;DHT22;24840;47.508;19.376;2022-11-14T08:03:28;7.30;99.90
39095;DHT22;24840;47.508;19.376;2022-11-14T08:06:03;7.20;99.90
39095;DHT22;24840;47.508;19.376;2022-11-14T08:08:30;7.30;99.90
39095;DHT22;24840;47.508;19.376;2022-11-14T08:10:57;7.30;99.90
39095;DHT22;24840;47.508;19.376;2022-11-14T08:13:25;7.30;99.90
39095;DHT22;24840;47.508;19.376;2022-11-14T08:15:52;7.50;99.90
39095;DHT22;24840;47.508;19.376;2022-11-14T08:18:18;7.70;99.90
39095;DHT22;24840;47.508;19.376;2022-11-14T08:20:44;7.90;99.90
39095;DHT22;24840;47.508;19.376;2022-11-14T08:23:12;8.10;99.90
39095;DHT22;24840;47.508;19.376;2022-11-14T08:25:43;8.40;99.90
39095;DHT22;24840;47.508;19.376;2022-11-14T08:28:10;8.60;99.90
39095;DHT22;24840;47.508;19.376;2022-11-14T08:30:37;8.80;99.90
39095;DHT22;24840;47.508;19.376;2022-11-14T08:33:06;9.00;99.90
39095;DHT22;24840;47.508;19.376;2022-11-14T08:35:36;9.20;99.90
39095;DHT22;24840;47.508;19.376;2022-11-14T08:38:04;10.00;99.90
39095;DHT22;24840;47.508;19.376;2022-11-14T08:40:30;10.40;99.90
39095;DHT22;24840;47.508;19.376;2022-11-14T08:43:00;10.70;99.90
39095;DHT22;24840;47.508;19.376;2022-11-14T08:45:27;11.20;99.90
39095;DHT22;24840;47.508;19.376;2022-11-14T08:47:53;11.60;99.90
39095;DHT22;24840;47.508;19.376;2022-11-14T08:50:21;11.80;99.90
39095;DHT22;24840;47.508;19.376;2022-11-14T08:52:50;11.30;99.90
39095;DHT22;24840;47.508;19.376;2022-11-14T08:55:17;12.40;99.90
39095;DHT22;24840;47.508;19.376;2022-11-14T08:57:44;12.50;99.90
39095;DHT22;24840;47.508;19.376;2022-11-14T09:00:10;12.70;99.90
39095;DHT22;24840;47.508;19.376;2022-11-14T09:02:37;13.00;99.90
39095;DHT22;24840;47.508;19.376;2022-11-14T09:05:04;13.20;99.90
39095;DHT22;24840;47.508;19.376;2022-11-14T09:07:31;13.30;99.90
39095;DHT22;24840;47.508;19.376;2022-11-14T09:09:58;13.80;99.90
39095;DHT22;24840;47.508;19.376;2022-11-14T09:12:37;13.70;99.90
39095;DHT22;24840;47.508;19.376;2022-11-14T09:15:11;14.40;99.90
39095;DHT22;24840;47.508;19.376;2022-11-14T09:17:40;14.50;99.90
39095;DHT22;24840;47.508;19.376;2022-11-14T09:20:08;14.30;99.90
39095;DHT22;24840;47.508;19.376;2022-11-14T09:22:45;14.60;99.90
39095;DHT22;24840;47.508;19.376;2022-11-14T09:25:26;14.30;99.90
39095;DHT22;24840;47.508;19.376;2022-11-14T09:27:52;14.70;99.90
39095;DHT22;24840;47.508;19.376;2022-11-14T09:30:19;14.40;99.90
39095;DHT22;24840;47.508;19.376;2022-11-14T09:32:51;14.80;99.90
39095;DHT22;24840;47.508;19.376;2022-11-14T09:35:21;14.50;99.90
39095;DHT22;24840;47.508;19.376;2022-11-14T09:37:47;14.40;99.90
39095;DHT22;24840;47.508;19.376;2022-11-14T09:40:13;15.30;99.90
39095;DHT22;24840;47.508;19.376;2022-11-14T09:45:27;15.40;99.90
39095;DHT22;24840;47.508;19.376;2022-11-14T09:48:18;14.70;99.90
39095;DHT22;24840;47.508;19.376;2022-11-14T09:50:52;15.40;99.90
39095;DHT22;24840;47.508;19.376;2022-11-14T09:53:32;15.00;99.90
39095;DHT22;24840;47.508;19.376;2022-11-14T09:55:59;15.30;99.90
39095;DHT22;24840;47.508;19.376;2022-11-14T09:58:26;16.00;99.90
39095;DHT22;24840;47.508;19.376;2022-11-14T10:01:06;15.80;99.90
39095;DHT22;24840;47.508;19.376;2022-11-14T10:04:04;16.20;99.90
39095;DHT22;24840;47.508;19.376;2022-11-14T10:06:47;16.70;98.60
39095;DHT22;24840;47.508;19.376;2022-11-14T10:09:43;17.40;97.80
39095;DHT22;24840;47.508;19.376;2022-11-14T10:12:40;17.30;98.30
39095;DHT22;24840;47.508;19.376;2022-11-14T10:15:35;17.20;97.10
39095;DHT22;24840;47.508;19.376;2022-11-14T10:18:24;16.50;97.90
39095;DHT22;24840;47.508;19.376;2022-11-14T10:20:57;15.90;97.70
39095;DHT22;24840;47.508;19.376;2022-11-14T10:26:37;17.00;96.50
39095;DHT22;24840;47.508;19.376;2022-11-14T10:29:38;16.90;97.10
39095;DHT22;24840;47.508;19.376;2022-11-14T10:32:27;17.70;95.60
39095;DHT22;24840;47.508;19.376;2022-11-14T10:37:58;18.20;94.60
39095;DHT22;24840;47.508;19.376;2022-11-14T10:40:37;17.00;95.10
39095;DHT22;24840;47.508;19.376;2022-11-14T10:48:46;17.90;94.70
39095;DHT22;24840;47.508;19.376;2022-11-14T10:51:42;18.00;93.50
39095;DHT22;24840;47.508;19.376;2022-11-14T10:54:16;17.90;94.00
39095;DHT22;24840;47.508;19.376;2022-11-14T10:56:49;18.20;93.50
39095;DHT22;24840;47.508;19.376;2022-11-14T10:59:33;17.60;91.70
39095;DHT22;24840;47.508;19.376;2022-11-14T11:02:05;17.80;94.20
39095;DHT22;24840;47.508;19.376;2022-11-14T11:04:41;17.00;93.80
39095;DHT22;24840;47.508;19.376;2022-11-14T11:07:35;17.20;93.50
39095;DHT22;24840;47.508;19.376;2022-11-14T11:10:28;16.90;93.70
39095;DHT22;24840;47.508;19.376;2022-11-14T11:13:28;17.70;93.70
39095;DHT22;24840;47.508;19.376;2022-11-14T11:15:57;17.50;92.70
39095;DHT22;24840;47.508;19.376;2022-11-14T11:18:28;17.20;93.10
39095;DHT22;24840;47.508;19.376;2022-11-14T11:21:12;17.90;92.20
39095;DHT22;24840;47.508;19.376;2022-11-14T11:23:55;17.70;92.30
39095;DHT22;24840;47.508;19.376;2022-11-14T11:26:30;18.30;92.00
39095;DHT22;24840;47.508;19.376;2022-11-14T11:29:13;17.90;91.60
39095;DHT22;24840;47.508;19.376;2022-11-14T11:34:23;18.50;92.20
39095;DHT22;24840;47.508;19.376;2022-11-14T11:37:28;19.40;90.40
39095;DHT22;24840;47.508;19.376;2022-11-14T11:40:00;19.80;89.10
39095;DHT22;24840;47.508;19.376;2022-11-14T11:42:50;19.70;87.90
39095;DHT22;24840;47.508;19.376;2022-11-14T11:45:23;18.70;90.50
39095;DHT22;24840;47.508;19.376;2022-11-14T11:48:00;18.30;87.60
39095;DHT22;24840;47.508;19.376;2022-11-14T11:50:29;18.50;90.00
39095;DHT22;24840;47.508;19.376;2022-11-14T11:55:52;18.90;90.60
39095;DHT22;24840;47.508;19.376;2022-11-14T11:58:24;19.20;88.60
39095;DHT22;24840;47.508;19.376;2022-11-14T12:00:54;19.40;88.00
39095;DHT22;24840;47.508;19.376;2022-11-14T12:03:20;19.00;89.00
39095;DHT22;24840;47.508;19.376;2022-11-14T12:06:20;19.20;87.90
39095;DHT22;24840;47.508;19.376;2022-11-14T12:09:21;19.30;87.50
39095;DHT22;24840;47.508;19.376;2022-11-14T12:11:56;18.70;87.90
39095;DHT22;24840;47.508;19.376;2022-11-14T12:17:07;19.30;84.90
39095;DHT22;24840;47.508;19.376;2022-11-14T12:19:49;19.20;87.60
39095;DHT22;24840;47.508;19.376;2022-11-14T12:22:54;19.50;89.00
39095;DHT22;24840;47.508;19.376;2022-11-14T12:25:56;18.70;87.90
39095;DHT22;24840;47.508;19.376;2022-11-14T12:28:40;18.50;89.40
39095;DHT22;24840;47.508;19.376;2022-11-14T12:31:13;18.60;87.80
39095;DHT22;24840;47.508;19.376;2022-11-14T12:33:59;18.10;87.20
39095;DHT22;24840;47.508;19.376;2022-11-14T12:36:31;19.10;88.50
39095;DHT22;24840;47.508;19.376;2022-11-14T12:38:59;18.90;88.60
39095;DHT22;24840;47.508;19.376;2022-11-14T12:41:28;19.00;86.10
39095;DHT22;24840;47.508;19.376;2022-11-14T13:03:44;19.00;88.40
39095;DHT22;24840;47.508;19.376;2022-11-14T13:06:25;18.50;85.30
39095;DHT22;24840;47.508;19.376;2022-11-14T13:11:38;19.00;84.60
39095;DHT22;24840;47.508;19.376;2022-11-14T13:14:25;18.80;85.20
39095;DHT22;24840;47.508;19.376;2022-11-14T13:17:31;18.40;86.20
39095;DHT22;24840;47.508;19.376;2022-11-14T13:33:57;17.40;89.50
39095;DHT22;24840;47.508;19.376;2022-11-14T13:43:03;16.90;90.50
39095;DHT22;24840;47.508;19.376;2022-11-14T13:48:54;16.60;90.60
39095;DHT22;24840;47.508;19.376;2022-11-14T13:51:27;16.20;91.00
39095;DHT22;24840;47.508;19.376;2022-11-14T13:54:01;16.10;92.00
39095;DHT22;24840;47.508;19.376;2022-11-14T13:56:48;15.60;92.90
39095;DHT22;24840;47.508;19.376;2022-11-14T13:59:50;15.50;92.40
39095;DHT22;24840;47.508;19.376;2022-11-14T14:05:43;15.10;94.20
39095;DHT22;24840;47.508;19.376;2022-11-14T14:08:40;14.90;93.90
39095;DHT22;24840;47.508;19.376;2022-11-14T14:11:25;15.10;94.10
39095;DHT22;24840;47.508;19.376;2022-11-14T14:19:40;14.00;95.20
39095;DHT22;24840;47.508;19.376;2022-11-14T14:28:24;13.50;96.80
39095;DHT22;24840;47.508;19.376;2022-11-14T14:34:28;13.40;97.00
39095;DHT22;24840;47.508;19.376;2022-11-14T14:36:56;13.20;97.30
39095;DHT22;24840;47.508;19.376;2022-11-14T14:39:27;13.00;97.60
39095;DHT22;24840;47.508;19.376;2022-11-14T14:41:56;13.00;97.70
39095;DHT22;24840;47.508;19.376;2022-11-14T14:44:30;12.30;98.50
39095;DHT22;24840;47.508;19.376;2022-11-14T14:46:57;12.20;99.30
39095;DHT22;24840;47.508;19.376;2022-11-14T14:49:35;12.20;99.80
39095;DHT22;24840;47.508;19.376;2022-11-14T14:52:34;12.00;99.90
39095;DHT22;24840;47.508;19.376;2022-11-14T14:55:05;12.00;99.90
39095;DHT22;24840;47.508;19.376;2022-11-14T14:57:33;11.80;99.90
39095;DHT22;24840;47.508;19.376;2022-11-14T15:00:05;11.20;99.90
39095;DHT22;24840;47.508;19.376;2022-11-14T15:02:33;11.20;99.90
39095;DHT22;24840;47.508;19.376;2022-11-14T15:05:00;11.30;99.90
39095;DHT22;24840;47.508;19.376;2022-11-14T15:07:28;11.10;99.90
39095;DHT22;24840;47.508;19.376;2022-11-14T15:09:56;10.90;99.90
39095;DHT22;24840;47.508;19.376;2022-11-14T15:12:26;10.60;99.90
39095;DHT22;24840;47.508;19.376;2022-11-14T15:14:59;10.50;99.90
39095;DHT22;24840;47.508;19.376;2022-11-14T15:17:26;10.20;99.90
39095;DHT22;24840;47.508;19.376;2022-11-14T15:19:53;10.20;99.90
39095;DHT22;24840;47.508;19.376;2022-11-14T15:22:20;10.10;99.90
39095;DHT22;24840;47.508;19.376;2022-11-14T15:27:53;9.80;99.90
39095;DHT22;24840;47.508;19.376;2022-11-14T15:30:32;9.50;99.90
39095;DHT22;24840;47.508;19.376;2022-11-14T15:33:01;9.40;99.90
39095;DHT22;24840;47.508;19.376;2022-11-14T15:35:35;9.20;99.90
39095;DHT22;24840;47.508;19.376;2022-11-14T15:40:38;9.10;99.90
39095;DHT22;24840;47.508;19.376;2022-11-14T15:43:36;8.90;99.90
39095;DHT22;24840;47.508;19.376;2022-11-14T15:46:03;8.80;99.90
39095;DHT22;24840;47.508;19.376;2022-11-14T15:48:30;8.70;99.90
39095;DHT22;24840;47.508;19.376;2022-11-14T15:50:56;8.70;99.90
39095;DHT22;24840;47.508;19.376;2022-11-14T15:53:26;8.40;99.90
39095;DHT22;24840;47.508;19.376;2022-11-14T15:55:57;8.40;99.90
39095;DHT22;24840;47.508;19.376;2022-11-14T15:58:25;8.30;99.90
39095;DHT22;24840;47.508;19.376;2022-11-14T16:00:52;8.10;99.90
39095;DHT22;24840;47.508;19.376;2022-11-14T16:03:21;8.00;99.90
39095;DHT22;24840;47.508;19.376;2022-11-14T16:05:48;8.00;99.90
39095;DHT22;24840;47.508;19.376;2022-11-14T16:08:14;7.90;99.90
39095;DHT22;24840;47.508;19.376;2022-11-14T16:10:40;7.80;99.90
39095;DHT22;24840;47.508;19.376;2022-11-14T16:13:06;7.60;99.90
39095;DHT22;24840;47.508;19.376;2022-11-14T16:15:39;7.70;99.90
39095;DHT22;24840;47.508;19.376;2022-11-14T16:18:11;7.80;99.90
39095;DHT22;24840;47.508;19.376;2022-11-14T16:20:40;7.60;99.90
39095;DHT22;24840;47.508;19.376;2022-11-14T16:23:12;7.50;99.90
39095;DHT22;24840;47.508;19.376;2022-11-14T16:25:45;7.40;99.90
39095;DHT22;24840;47.508;19.376;2022-11-14T16:28:17;7.30;99.90
39095;DHT22;24840;47.508;19.376;2022-11-14T16:30:45;7.20;99.90
39095;DHT22;24840;47.508;19.376;2022-11-14T16:33:12;7.10;99.90
39095;DHT22;24840;47.508;19.376;2022-11-14T16:35:42;7.00;99.90
39095;DHT22;24840;47.508;19.376;2022-11-14T16:38:11;7.00;99.90
39095;DHT22;24840;47.508;19.376;2022-11-14T16:40:45;7.00;99.90
39095;DHT22;24840;47.508;19.376;2022-11-14T16:43:13;7.10;99.90
39095;DHT22;24840;47.508;19.376;2022-11-14T16:45:44;7.00;99.90
39095;DHT22;24840;47.508;19.376;2022-11-14T16:48:12;6.90;99.90
39095;DHT22;24840;47.508;19.376;2022-11-14T16:50:38;6.90;99.90
39095;DHT22;24840;47.508;19.376;2022-11-14T16:53:05;6.90;99.90
39095;DHT22;24840;47.508;19.376;2022-11-14T16:55:31;6.80;99.90
39095;DHT22;24840;47.508;19.376;2022-11-14T16:58:00;6.60;99.90
39095;DHT22;24840;47.508;19.376;2022-11-14T17:00:27;6.70;99.90
39095;DHT22;24840;47.508;19.376;2022-11-14T17:02:53;6.70;99.90
39095;DHT22;24840;47.508;19.376;2022-11-14T17:05:19;6.70;99.90
39095;DHT22;24840;47.508;19.376;2022-11-14T17:07:45;6.80;99.90
39095;DHT22;24840;47.508;19.376;2022-11-14T17:10:11;6.70;99.90
39095;DHT22;24840;47.508;19.376;2022-11-14T17:12:37;6.50;99.90
39095;DHT22;24840;47.508;19.376;2022-11-14T17:15:04;6.50;99.90
39095;DHT22;24840;47.508;19.376;2022-11-14T17:17:30;6.40;99.90
39095;DHT22;24840;47.508;19.376;2022-11-14T17:19:56;6.20;99.90
39095;DHT22;24840;47.508;19.376;2022-11-14T17:22:25;6.20;99.90